createdAt,value
2023-03-13T00:00:56.420Z,4.20
2023-03-13T00:03:24.320Z,4.03
2023-03-13T00:05:56.130Z,4.20
2023-03-13T00:08:24.136Z,4.43
2023-03-13T00:10:51.890Z,4.10
2023-03-13T00:13:21.048Z,4.20
2023-03-13T00:15:49.010Z,4.07
2023-03-13T00:18:17.151Z,3.90
2023-03-13T00:20:47.765Z,4.17
2023-03-13T00:23:15.698Z,4.30
2023-03-13T00:25:43.786Z,4.00
2023-03-13T00:28:11.766Z,3.77
2023-03-13T00:30:41.380Z,3.90
2023-03-13T00:33:09.249Z,4.20
2023-03-13T00:35:37.084Z,3.90
2023-03-13T00:38:04.879Z,4.33
2023-03-13T00:40:32.686Z,4.03
2023-03-13T00:43:00.384Z,4.83
2023-03-13T00:45:28.422Z,4.10
2023-03-13T00:47:57.722Z,4.30
2023-03-13T00:50:25.753Z,4.43
2023-03-13T00:52:54.163Z,4.60
2023-03-13T00:55:22.092Z,4.33
2023-03-13T00:57:50.425Z,4.73
2023-03-13T01:00:19.212Z,4.57
2023-03-13T01:02:47.635Z,4.40
2023-03-13T01:05:17.042Z,4.60
2023-03-13T01:07:44.794Z,4.43
2023-03-13T01:10:12.794Z,4.67
2023-03-13T01:12:40.806Z,5.57
2023-03-13T01:15:10.321Z,5.20
2023-03-13T01:17:38.240Z,4.50
2023-03-13T01:20:08.283Z,4.23
2023-03-13T01:22:37.517Z,4.37
2023-03-13T01:25:06.079Z,4.50
2023-03-13T01:27:33.815Z,4.53
2023-03-13T01:30:02.008Z,4.67
2023-03-13T01:32:29.812Z,4.33
2023-03-13T01:34:57.794Z,5.30
2023-03-13T01:37:25.560Z,4.80
2023-03-13T01:39:54.765Z,4.53
2023-03-13T01:42:22.740Z,4.80
2023-03-13T01:44:51.604Z,4.17
2023-03-13T01:47:19.438Z,4.40
2023-03-13T01:49:47.195Z,4.27
2023-03-13T01:52:15.954Z,4.37
2023-03-13T01:54:44.867Z,4.60
2023-03-13T01:57:16.566Z,4.33
2023-03-13T01:59:47.231Z,4.40
2023-03-13T02:02:15.251Z,4.57
2023-03-13T02:04:46.593Z,4.70
2023-03-13T02:07:16.769Z,6.07
2023-03-13T02:09:46.401Z,6.53
2023-03-13T02:12:17.245Z,6.93
2023-03-13T02:14:45.833Z,7.80
2023-03-13T02:17:13.592Z,7.60
2023-03-13T02:19:43.228Z,7.80
2023-03-13T02:22:13.867Z,7.80
2023-03-13T02:24:44.161Z,7.40
2023-03-13T02:27:13.232Z,7.27
2023-03-13T02:29:41.021Z,7.70
2023-03-13T02:32:09.155Z,7.70
2023-03-13T02:34:37.742Z,7.83
2023-03-13T02:37:06.176Z,7.20
2023-03-13T02:39:34.121Z,7.23
2023-03-13T02:42:02.103Z,7.77
2023-03-13T02:44:31.762Z,6.63
2023-03-13T02:46:59.666Z,6.77
2023-03-13T02:49:28.817Z,7.00
2023-03-13T02:51:58.047Z,6.90
2023-03-13T02:54:28.372Z,6.23
2023-03-13T02:56:57.436Z,6.57
2023-03-13T02:59:25.381Z,6.67
2023-03-13T03:01:54.886Z,6.43
2023-03-13T03:04:22.979Z,6.90
2023-03-13T03:06:51.460Z,6.50
2023-03-13T03:09:19.523Z,6.20
2023-03-13T03:11:47.735Z,6.00
2023-03-13T03:14:15.867Z,6.00
2023-03-13T03:16:43.835Z,6.40
2023-03-13T03:19:13.225Z,6.10
2023-03-13T03:21:41.351Z,6.40
2023-03-13T03:24:09.744Z,5.03
2023-03-13T03:26:37.688Z,5.90
2023-03-13T03:29:05.684Z,5.33
2023-03-13T03:31:33.779Z,5.70
2023-03-13T03:34:01.688Z,5.30
2023-03-13T03:36:30.948Z,5.40
2023-03-13T03:38:59.177Z,5.13
2023-03-13T03:41:27.434Z,5.40
2023-03-13T03:43:55.473Z,5.00
2023-03-13T03:46:23.317Z,5.00
2023-03-13T03:48:51.189Z,5.10
2023-03-13T03:51:19.490Z,5.60
2023-03-13T03:53:48.939Z,4.70
2023-03-13T03:56:16.843Z,5.40
2023-03-13T03:58:44.670Z,4.40
2023-03-13T04:01:12.571Z,5.30
2023-03-13T04:03:40.616Z,4.90
2023-03-13T04:06:09.426Z,4.97
2023-03-13T04:08:37.300Z,4.93
2023-03-13T04:11:06.571Z,5.40
2023-03-13T04:13:34.425Z,4.40
2023-03-13T04:16:07.159Z,4.37
2023-03-13T04:18:35.046Z,4.57
2023-03-13T04:21:03.220Z,4.37
2023-03-13T04:23:31.410Z,4.43
2023-03-13T04:25:59.422Z,5.07
2023-03-13T04:28:28.722Z,4.50
2023-03-13T04:30:58.219Z,4.07
2023-03-13T04:33:26.765Z,4.10
2023-03-13T04:35:54.660Z,4.00
2023-03-13T04:38:22.579Z,4.10
2023-03-13T04:40:50.498Z,3.87
2023-03-13T04:43:18.811Z,3.60
2023-03-13T04:45:48.065Z,4.00
2023-03-13T04:48:15.990Z,4.40
2023-03-13T04:50:44.256Z,3.50
2023-03-13T04:53:12.101Z,4.23
2023-03-13T04:55:40.407Z,3.60
2023-03-13T04:58:08.320Z,4.00
2023-03-13T05:00:36.332Z,3.70
2023-03-13T05:03:05.594Z,3.60
2023-03-13T05:05:34.997Z,3.87
2023-03-13T05:08:03.104Z,3.23
2023-03-13T05:10:31.164Z,3.70
2023-03-13T05:12:59.013Z,3.40
2023-03-13T05:15:26.968Z,3.53
2023-03-13T05:17:55.021Z,3.77
2023-03-13T05:20:24.356Z,3.53
2023-03-13T05:22:52.208Z,2.70
2023-03-13T05:25:20.457Z,2.87
2023-03-13T05:27:48.357Z,3.30
2023-03-13T05:30:16.335Z,3.40
2023-03-13T05:32:44.644Z,2.90
2023-03-13T05:35:12.575Z,2.90
2023-03-13T05:37:42.472Z,3.23
2023-03-13T05:40:11.473Z,3.00
2023-03-13T05:42:39.494Z,2.80
2023-03-13T05:45:09.266Z,3.00
2023-03-13T05:47:39.083Z,3.60
2023-03-13T05:50:07.994Z,2.50
2023-03-13T05:52:36.387Z,2.60
2023-03-13T05:55:06.319Z,2.67
2023-03-13T05:57:34.262Z,2.47
2023-03-13T06:00:02.582Z,2.13
2023-03-13T06:02:30.792Z,2.50
2023-03-13T06:04:58.940Z,2.63
2023-03-13T06:07:27.180Z,2.67
2023-03-13T06:09:55.091Z,2.20
2023-03-13T06:12:24.367Z,2.20
2023-03-13T06:14:52.308Z,2.37
2023-03-13T06:17:20.145Z,2.07
2023-03-13T06:19:48.078Z,2.33
2023-03-13T06:22:17.864Z,2.20
2023-03-13T06:24:46.887Z,2.33
2023-03-13T06:27:15.182Z,2.33
2023-03-13T06:29:44.556Z,2.40
2023-03-13T06:32:12.557Z,2.40
2023-03-13T06:34:40.571Z,2.00
2023-03-13T06:37:08.592Z,2.00
2023-03-13T06:39:36.442Z,1.80
2023-03-13T06:42:09.619Z,1.90
2023-03-13T06:44:38.202Z,1.97
2023-03-13T06:47:08.153Z,2.37
2023-03-13T06:49:36.675Z,2.03
2023-03-13T06:52:04.824Z,1.53
2023-03-13T06:54:33.100Z,1.90
2023-03-13T06:57:01.108Z,2.10
2023-03-13T06:59:29.598Z,1.40
2023-03-13T07:01:57.540Z,1.90
2023-03-13T07:04:27.071Z,1.87
2023-03-13T07:06:54.982Z,1.63
2023-03-13T07:09:23.319Z,2.10
2023-03-13T07:11:51.247Z,2.30
2023-03-13T07:14:19.225Z,1.90
2023-03-13T07:16:47.508Z,1.47
2023-03-13T07:19:15.834Z,1.57
2023-03-13T07:21:46.989Z,1.90
2023-03-13T07:24:15.111Z,1.63
2023-03-13T07:26:54.475Z,1.80
2023-03-13T07:29:30.078Z,1.40
2023-03-13T07:31:58.341Z,1.43
2023-03-13T07:34:26.406Z,1.60
2023-03-13T07:36:56.241Z,1.50
2023-03-13T07:39:24.423Z,1.40
2023-03-13T07:41:52.525Z,1.80
2023-03-13T07:44:20.648Z,1.67
2023-03-13T07:46:50.303Z,1.43
2023-03-13T07:49:18.197Z,1.30
2023-03-13T07:51:47.968Z,1.43
2023-03-13T07:54:17.485Z,1.50
2023-03-13T07:56:45.770Z,2.10
2023-03-13T07:59:13.671Z,2.03
2023-03-13T08:01:42.086Z,1.60
2023-03-13T08:04:11.351Z,1.70
2023-03-13T08:06:41.223Z,1.80
2023-03-13T08:09:09.878Z,1.87
2023-03-13T08:11:40.444Z,1.70
2023-03-13T08:14:08.400Z,1.80
2023-03-13T08:16:36.589Z,1.60
2023-03-13T08:19:06.128Z,1.80
2023-03-13T08:21:35.196Z,2.20
2023-03-13T08:24:06.286Z,1.97
2023-03-13T08:26:35.130Z,1.83
2023-03-13T08:29:05.689Z,1.80
2023-03-13T08:31:34.401Z,1.90
2023-03-13T08:34:02.511Z,1.80
2023-03-13T08:36:32.383Z,2.10
2023-03-13T08:39:01.357Z,1.90
2023-03-13T08:41:30.565Z,2.43
2023-03-13T08:43:58.917Z,2.10
2023-03-13T08:46:29.959Z,2.07
2023-03-13T08:48:57.927Z,2.00
2023-03-13T08:51:27.251Z,1.97
2023-03-13T08:53:56.167Z,1.90
2023-03-13T08:56:25.312Z,2.00
2023-03-13T08:58:53.621Z,2.23
2023-03-13T09:01:22.248Z,2.20
2023-03-13T09:03:51.779Z,2.10
2023-03-13T09:06:20.195Z,2.23
2023-03-13T09:08:48.170Z,2.40
2023-03-13T09:11:17.485Z,2.20
2023-03-13T09:13:46.519Z,2.10
2023-03-13T09:16:15.628Z,2.20
2023-03-13T09:18:43.926Z,2.27
2023-03-13T09:21:14.603Z,2.43
2023-03-13T09:23:43.177Z,2.27
2023-03-13T09:26:12.213Z,2.30
2023-03-13T09:28:42.599Z,2.37
2023-03-13T09:31:11.344Z,2.53
2023-03-13T09:33:39.873Z,2.27
2023-03-13T09:36:08.652Z,2.10
2023-03-13T09:38:38.303Z,2.43
2023-03-13T09:41:12.844Z,1.90
2023-03-13T09:43:43.364Z,2.27
2023-03-13T09:46:14.589Z,2.20
2023-03-13T09:48:44.410Z,1.90
2023-03-13T09:51:14.613Z,2.20
2023-03-13T09:53:46.108Z,2.40
2023-03-13T09:56:16.194Z,2.53
2023-03-13T09:58:48.356Z,2.03
2023-03-13T10:01:16.239Z,2.30
2023-03-13T10:03:45.672Z,2.03
2023-03-13T10:06:15.922Z,2.17
2023-03-13T10:08:45.304Z,1.87
2023-03-13T10:11:16.437Z,2.30
2023-03-13T10:13:47.370Z,2.27
2023-03-13T10:16:19.297Z,2.17
2023-03-13T10:18:49.410Z,1.83
2023-03-13T10:21:19.183Z,2.07
2023-03-13T10:23:52.514Z,2.00
2023-03-13T10:26:22.484Z,1.90
2023-03-13T10:28:51.515Z,2.13
2023-03-13T10:31:22.751Z,2.37
2023-03-13T10:33:50.806Z,2.00
2023-03-13T10:36:19.703Z,2.10
2023-03-13T10:38:50.847Z,1.60
2023-03-13T10:41:32.665Z,3.00
2023-03-13T10:44:01.680Z,3.10
2023-03-13T10:46:30.489Z,3.43
2023-03-13T10:48:59.095Z,3.40
2023-03-13T10:51:34.587Z,3.17
2023-03-13T10:54:09.666Z,3.33
2023-03-13T10:56:37.917Z,3.23
2023-03-13T10:59:18.144Z,3.40
2023-03-13T11:01:46.127Z,2.60
2023-03-13T11:04:20.940Z,2.97
2023-03-13T11:06:52.768Z,2.93
2023-03-13T11:09:22.484Z,2.90
2023-03-13T11:11:51.588Z,3.20
2023-03-13T11:14:20.867Z,2.80
2023-03-13T11:16:50.520Z,3.07
2023-03-13T11:19:36.362Z,2.53
2023-03-13T11:22:26.349Z,2.40
2023-03-13T11:24:59.177Z,3.00
2023-03-13T11:27:30.288Z,2.90
2023-03-13T11:30:18.547Z,2.50
2023-03-13T11:32:49.364Z,2.60
2023-03-13T11:35:22.457Z,2.77
2023-03-13T11:37:51.326Z,2.70
2023-03-13T11:40:22.722Z,2.63
2023-03-13T11:43:21.819Z,2.17
2023-03-13T11:46:13.506Z,2.63
2023-03-13T11:49:03.595Z,2.40
2023-03-13T11:51:34.225Z,2.13
2023-03-13T11:54:10.446Z,1.90
2023-03-13T11:56:41.990Z,2.33
2023-03-13T11:59:31.227Z,2.47
2023-03-13T12:02:01.823Z,2.30
2023-03-13T12:04:31.880Z,1.93
2023-03-13T12:07:02.994Z,2.13
2023-03-13T12:09:34.318Z,2.20
2023-03-13T12:12:04.753Z,2.03
2023-03-13T12:14:34.512Z,1.93
2023-03-13T12:17:04.021Z,1.77
2023-03-13T12:19:34.007Z,2.63
2023-03-13T12:22:07.898Z,1.80
2023-03-13T12:24:37.521Z,2.47
2023-03-13T12:27:11.188Z,2.30
2023-03-13T12:29:44.930Z,2.03
2023-03-13T12:32:15.562Z,1.87
2023-03-13T12:34:50.048Z,2.10
2023-03-13T12:37:21.603Z,1.60
2023-03-13T12:39:51.152Z,1.70
2023-03-13T12:42:26.124Z,1.80
2023-03-13T12:45:01.544Z,1.90
2023-03-13T12:47:32.607Z,2.30
2023-03-13T12:50:25.257Z,1.57
2023-03-13T12:53:26.615Z,1.60
2023-03-13T12:56:30.320Z,1.80
2023-03-13T12:59:00.597Z,1.60
2023-03-13T13:01:31.861Z,1.70
2023-03-13T13:04:01.882Z,1.67
2023-03-13T13:06:30.723Z,1.60
2023-03-13T13:09:09.064Z,1.30
2023-03-13T13:11:56.370Z,1.63
2023-03-13T13:15:04.979Z,1.90
2023-03-13T13:17:48.899Z,1.60
2023-03-13T13:20:45.956Z,1.50
2023-03-13T13:23:43.851Z,1.50
2023-03-13T13:26:48.933Z,2.33
2023-03-13T13:30:00.189Z,1.53
2023-03-13T13:32:48.369Z,1.97
2023-03-13T13:35:25.365Z,2.10
2023-03-13T13:37:53.685Z,2.10
2023-03-13T13:40:28.009Z,2.30
2023-03-13T13:42:56.783Z,2.30
2023-03-13T13:45:32.742Z,2.20
2023-03-13T13:48:30.308Z,2.10
2023-03-13T13:51:24.009Z,1.80
2023-03-13T13:53:54.839Z,1.80
2023-03-13T13:56:47.050Z,2.03
2023-03-13T13:59:34.538Z,2.03
2023-03-13T14:02:31.891Z,1.83
2023-03-13T14:05:06.039Z,1.80
2023-03-13T14:08:03.633Z,1.90
2023-03-13T14:10:37.205Z,2.20
2023-03-13T14:13:12.593Z,2.20
2023-03-13T14:15:43.762Z,2.00
2023-03-13T14:18:14.201Z,2.20
2023-03-13T14:20:53.185Z,2.03
2023-03-13T14:23:31.190Z,1.90
2023-03-13T14:25:59.059Z,1.97
2023-03-13T14:28:27.971Z,2.20
2023-03-13T14:30:57.027Z,1.80
2023-03-13T14:33:27.748Z,1.90
2023-03-13T14:35:57.812Z,1.97
2023-03-13T14:38:26.491Z,1.97
2023-03-13T14:40:55.370Z,2.03
2023-03-13T14:43:27.580Z,1.60
2023-03-13T14:45:55.510Z,1.83
2023-03-13T14:48:24.731Z,1.80
2023-03-13T14:51:08.707Z,2.33
2023-03-13T14:53:54.400Z,2.50
2023-03-13T14:56:22.349Z,2.47
2023-03-13T14:58:50.288Z,2.20
2023-03-13T15:01:26.526Z,2.10
2023-03-13T15:03:54.774Z,2.00
2023-03-13T15:06:23.863Z,2.23
2023-03-13T15:09:14.860Z,2.00
2023-03-13T15:11:43.346Z,1.90
2023-03-13T15:14:33.917Z,1.93
2023-03-13T15:17:01.927Z,1.73
2023-03-13T15:19:29.941Z,1.80
2023-03-13T15:21:58.201Z,2.10
2023-03-13T15:24:27.736Z,1.73
2023-03-13T15:26:56.144Z,2.37
2023-03-13T15:29:24.125Z,2.17
2023-03-13T15:31:52.283Z,2.17
2023-03-13T15:34:25.240Z,2.10
2023-03-13T15:36:53.293Z,1.90
2023-03-13T15:39:22.442Z,1.80
2023-03-13T15:41:51.909Z,2.00
2023-03-13T15:44:20.181Z,1.87
2023-03-13T15:46:48.713Z,1.70
2023-03-13T15:49:16.726Z,2.10
2023-03-13T15:51:44.695Z,1.83
2023-03-13T15:54:12.739Z,1.80
2023-03-13T15:56:41.937Z,1.90
2023-03-13T15:59:14.592Z,1.63
2023-03-13T16:01:43.436Z,2.70
2023-03-13T16:04:11.714Z,1.93
2023-03-13T16:06:39.870Z,2.17
2023-03-13T16:09:07.906Z,1.87
2023-03-13T16:11:35.913Z,1.70
2023-03-13T16:14:04.071Z,2.37
2023-03-13T16:16:37.268Z,1.80
2023-03-13T16:19:07.444Z,1.80
2023-03-13T16:21:36.171Z,2.03
2023-03-13T16:24:04.509Z,2.30
2023-03-13T16:26:32.757Z,2.00
2023-03-13T16:29:00.972Z,2.00
2023-03-13T16:31:29.772Z,1.53
2023-03-13T16:33:59.639Z,2.20
2023-03-13T16:36:35.019Z,2.20
2023-03-13T16:39:03.894Z,2.17
2023-03-13T16:41:32.874Z,1.90
2023-03-13T16:44:05.169Z,2.30
2023-03-13T16:46:36.461Z,1.90
2023-03-13T16:49:06.053Z,2.13
2023-03-13T16:51:34.310Z,1.90
2023-03-13T16:54:03.608Z,2.10
2023-03-13T16:56:33.806Z,2.27
2023-03-13T16:59:01.962Z,2.20
2023-03-13T17:01:30.133Z,2.03
2023-03-13T17:03:58.879Z,2.00
2023-03-13T17:06:29.450Z,2.00
2023-03-13T17:09:02.458Z,2.13
2023-03-13T17:11:30.529Z,2.33
2023-03-13T17:13:59.539Z,2.23
2023-03-13T17:16:32.233Z,2.10
2023-03-13T17:19:00.439Z,1.90
2023-03-13T17:21:31.928Z,2.37
2023-03-13T17:24:00.944Z,2.47
2023-03-13T17:26:33.636Z,2.40
2023-03-13T17:29:01.874Z,2.33
2023-03-13T17:31:30.230Z,2.20
2023-03-13T17:33:58.517Z,2.70
2023-03-13T17:36:27.426Z,2.60
2023-03-13T17:38:58.140Z,2.40
2023-03-13T17:41:27.026Z,2.23
2023-03-13T17:43:55.169Z,2.23
2023-03-13T17:46:24.596Z,2.50
2023-03-13T17:48:54.172Z,2.90
2023-03-13T17:51:23.034Z,2.83
2023-03-13T17:53:51.239Z,2.50
2023-03-13T17:56:22.321Z,2.50
2023-03-13T17:58:51.227Z,2.57
2023-03-13T18:01:21.666Z,2.37
2023-03-13T18:03:50.233Z,2.43
2023-03-13T18:06:23.036Z,2.50
2023-03-13T18:08:51.493Z,2.70
2023-03-13T18:11:21.098Z,2.20
2023-03-13T18:13:49.688Z,2.53
2023-03-13T18:16:25.381Z,3.00
2023-03-13T18:18:53.787Z,2.60
2023-03-13T18:21:22.017Z,2.73
2023-03-13T18:23:50.065Z,2.70
2023-03-13T18:26:21.833Z,2.53
2023-03-13T18:28:49.954Z,2.90
2023-03-13T18:31:18.090Z,3.33
2023-03-13T18:33:47.783Z,2.50
2023-03-13T18:36:17.792Z,2.80
2023-03-13T18:38:46.297Z,3.37
2023-03-13T18:41:15.484Z,2.60
2023-03-13T18:43:45.082Z,2.73
2023-03-13T18:46:15.576Z,2.70
2023-03-13T18:48:43.742Z,2.87
2023-03-13T18:51:16.524Z,2.77
2023-03-13T18:53:44.623Z,2.50
2023-03-13T18:56:18.014Z,2.90
2023-03-13T18:58:50.352Z,2.60
2023-03-13T19:01:20.172Z,2.90
2023-03-13T19:03:48.803Z,2.57
2023-03-13T19:06:18.873Z,3.57
2023-03-13T19:08:47.357Z,2.70
2023-03-13T19:11:15.522Z,2.80
2023-03-13T19:13:43.644Z,2.33
2023-03-13T19:16:17.243Z,3.20
2023-03-13T19:18:45.650Z,2.90
2023-03-13T19:21:18.520Z,2.60
2023-03-13T19:23:46.600Z,2.80
2023-03-13T19:26:20.520Z,2.60
2023-03-13T19:28:48.435Z,2.90
2023-03-13T19:31:18.808Z,3.23
2023-03-13T19:33:47.590Z,2.80
2023-03-13T19:36:16.403Z,3.13
2023-03-13T19:38:44.394Z,3.33
2023-03-13T19:41:12.808Z,2.97
2023-03-13T19:43:41.546Z,2.90
2023-03-13T19:46:25.063Z,2.87
2023-03-13T19:48:54.331Z,3.27
2023-03-13T19:51:22.232Z,2.90
2023-03-13T19:53:50.417Z,2.53
2023-03-13T19:56:43.322Z,3.20
2023-03-13T19:59:15.718Z,2.97
2023-03-13T20:01:45.945Z,3.47
2023-03-13T20:04:14.225Z,2.50
2023-03-13T20:06:42.965Z,3.10
2023-03-13T20:09:12.334Z,3.20
2023-03-13T20:11:40.810Z,3.00
2023-03-13T20:14:09.693Z,3.00
2023-03-13T20:16:37.635Z,3.43
2023-03-13T20:19:07.608Z,3.30
2023-03-13T20:21:36.641Z,3.33
2023-03-13T20:24:04.909Z,2.87
2023-03-13T20:26:33.162Z,3.40
2023-03-13T20:29:01.778Z,3.07
2023-03-13T20:31:30.670Z,3.37
2023-03-13T20:33:58.896Z,9.40
2023-03-13T20:36:28.899Z,7.57
2023-03-13T20:38:57.062Z,4.77
2023-03-13T20:41:27.194Z,7.30
2023-03-13T20:43:55.140Z,7.73
2023-03-13T20:46:23.698Z,6.47
2023-03-13T20:48:51.779Z,5.87
2023-03-13T20:51:20.157Z,5.90
2023-03-13T20:53:49.611Z,5.40
2023-03-13T20:56:18.211Z,5.20
2023-03-13T20:58:47.582Z,5.30
2023-03-13T21:01:18.285Z,5.20
2023-03-13T21:03:46.833Z,5.77
2023-03-13T21:06:15.733Z,5.00
2023-03-13T21:08:43.860Z,4.97
2023-03-13T21:11:19.183Z,5.10
2023-03-13T21:13:47.278Z,5.10
2023-03-13T21:16:15.410Z,5.17
2023-03-13T21:18:43.784Z,5.37
2023-03-13T21:21:13.292Z,6.00
2023-03-13T21:23:41.613Z,5.43
2023-03-13T21:26:09.598Z,4.80
2023-03-13T21:28:39.481Z,4.90
2023-03-13T21:31:11.144Z,4.73
2023-03-13T21:33:39.367Z,4.37
2023-03-13T21:36:07.918Z,4.80
2023-03-13T21:38:36.264Z,4.30
2023-03-13T21:41:08.622Z,4.13
2023-03-13T21:43:38.506Z,4.67
2023-03-13T21:46:06.949Z,4.83
2023-03-13T21:48:34.992Z,4.20
2023-03-13T21:51:03.074Z,4.73
2023-03-13T21:53:31.068Z,4.53
2023-03-13T21:55:58.970Z,4.77
2023-03-13T21:58:26.953Z,4.90
2023-03-13T22:00:56.650Z,5.00
2023-03-13T22:03:26.566Z,4.70
2023-03-13T22:05:54.635Z,4.90
2023-03-13T22:08:22.697Z,4.70
2023-03-13T22:10:51.061Z,5.00
2023-03-13T22:13:19.415Z,4.60
2023-03-13T22:15:50.780Z,4.60
2023-03-13T22:18:21.820Z,4.60
2023-03-13T22:20:54.003Z,5.00
2023-03-13T22:23:40.262Z,5.20
2023-03-13T22:26:09.571Z,4.70
2023-03-13T22:28:38.044Z,4.70
2023-03-13T22:31:07.173Z,4.77
2023-03-13T22:33:36.826Z,4.37
2023-03-13T22:36:05.719Z,4.10
2023-03-13T22:38:39.336Z,4.40
2023-03-13T22:41:08.255Z,5.20
2023-03-13T22:43:36.420Z,4.40
2023-03-13T22:46:04.798Z,4.37
2023-03-13T22:48:33.324Z,4.27
2023-03-13T22:51:04.060Z,4.07
2023-03-13T22:53:32.452Z,3.90
2023-03-13T22:56:00.499Z,3.77
2023-03-13T22:58:28.944Z,4.60
2023-03-13T23:00:56.944Z,3.97
2023-03-13T23:03:25.513Z,4.90
2023-03-13T23:05:53.474Z,4.40
2023-03-13T23:08:22.955Z,4.27
2023-03-13T23:10:50.925Z,3.80
2023-03-13T23:13:19.255Z,4.60
2023-03-13T23:15:55.649Z,4.50
2023-03-13T23:18:24.308Z,4.80
2023-03-13T23:20:52.253Z,3.87
2023-03-13T23:23:20.527Z,4.30
2023-03-13T23:25:50.196Z,4.20
2023-03-13T23:28:18.126Z,3.70
2023-03-13T23:30:45.988Z,3.80
2023-03-13T23:33:14.046Z,4.27
2023-03-13T23:35:44.041Z,4.53
2023-03-13T23:38:12.244Z,3.87
2023-03-13T23:40:40.302Z,4.10
2023-03-13T23:43:09.670Z,4.13
2023-03-13T23:45:38.114Z,4.20
2023-03-13T23:48:06.367Z,4.30
2023-03-13T23:50:34.358Z,3.80
2023-03-13T23:53:02.293Z,3.70
2023-03-13T23:55:30.501Z,3.77
2023-03-13T23:57:58.452Z,4.77
